sensor_id;sensor_type;location;lat;lon;timestamp;P1;durP1;ratioP1;P2;durP2;ratioP2
47772;SDS011;33534;51.028;13.716;2023-05-14T00:01:37;11.38;;;8.30;;
47772;SDS011;33534;51.028;13.716;2023-05-14T00:04:04;14.35;;;8.50;;
47772;SDS011;33534;51.028;13.716;2023-05-14T00:06:30;10.48;;;9.10;;
47772;SDS011;33534;51.028;13.716;2023-05-14T00:08:56;10.18;;;9.10;;
47772;SDS011;33534;51.028;13.716;2023-05-14T00:11:22;10.73;;;8.80;;
47772;SDS011;33534;51.028;13.716;2023-05-14T00:13:48;9.23;;;8.20;;
47772;SDS011;33534;51.028;13.716;2023-05-14T00:16:14;11.85;;;9.13;;
47772;SDS011;33534;51.028;13.716;2023-05-14T00:18:41;11.20;;;8.85;;
47772;SDS011;33534;51.028;13.716;2023-05-14T00:21:07;13.38;;;9.68;;
47772;SDS011;33534;51.028;13.716;2023-05-14T00:23:33;11.45;;;8.82;;
47772;SDS011;33534;51.028;13.716;2023-05-14T00:25:59;12.57;;;9.85;;
47772;SDS011;33534;51.028;13.716;2023-05-14T00:28:25;10.05;;;8.60;;
47772;SDS011;33534;51.028;13.716;2023-05-14T00:30:51;9.90;;;8.10;;
47772;SDS011;33534;51.028;13.716;2023-05-14T00:33:17;10.40;;;8.35;;
47772;SDS011;33534;51.028;13.716;2023-05-14T00:35:43;11.77;;;8.98;;
47772;SDS011;33534;51.028;13.716;2023-05-14T00:38:09;13.52;;;8.05;;
47772;SDS011;33534;51.028;13.716;2023-05-14T00:40:40;11.38;;;8.45;;
47772;SDS011;33534;51.028;13.716;2023-05-14T00:43:09;9.75;;;8.02;;
47772;SDS011;33534;51.028;13.716;2023-05-14T00:45:35;9.10;;;8.00;;
47772;SDS011;33534;51.028;13.716;2023-05-14T00:48:01;9.38;;;8.40;;
47772;SDS011;33534;51.028;13.716;2023-05-14T00:50:28;10.90;;;9.40;;
47772;SDS011;33534;51.028;13.716;2023-05-14T00:52:54;11.27;;;9.18;;
47772;SDS011;33534;51.028;13.716;2023-05-14T00:55:20;12.48;;;10.52;;
47772;SDS011;33534;51.028;13.716;2023-05-14T00:57:46;11.95;;;10.05;;
47772;SDS011;33534;51.028;13.716;2023-05-14T01:00:12;12.90;;;9.50;;
47772;SDS011;33534;51.028;13.716;2023-05-14T01:02:39;10.68;;;9.05;;
47772;SDS011;33534;51.028;13.716;2023-05-14T01:05:05;11.48;;;9.05;;
47772;SDS011;33534;51.028;13.716;2023-05-14T01:10:23;12.57;;;10.13;;
47772;SDS011;33534;51.028;13.716;2023-05-14T01:15:23;12.52;;;9.60;;
47772;SDS011;33534;51.028;13.716;2023-05-14T01:17:55;12.20;;;9.77;;
47772;SDS011;33534;51.028;13.716;2023-05-14T01:20:25;12.32;;;9.88;;
47772;SDS011;33534;51.028;13.716;2023-05-14T01:22:51;11.80;;;10.20;;
47772;SDS011;33534;51.028;13.716;2023-05-14T01:25:17;14.50;;;9.75;;
47772;SDS011;33534;51.028;13.716;2023-05-14T01:30:28;11.77;;;10.27;;
47772;SDS011;33534;51.028;13.716;2023-05-14T01:32:57;13.80;;;9.45;;
47772;SDS011;33534;51.028;13.716;2023-05-14T01:35:25;12.70;;;9.68;;
47772;SDS011;33534;51.028;13.716;2023-05-14T01:37:52;15.18;;;10.32;;
47772;SDS011;33534;51.028;13.716;2023-05-14T01:40:20;12.52;;;9.38;;
47772;SDS011;33534;51.028;13.716;2023-05-14T01:42:46;10.98;;;9.57;;
47772;SDS011;33534;51.028;13.716;2023-05-14T01:45:12;10.73;;;9.00;;
47772;SDS011;33534;51.028;13.716;2023-05-14T01:47:38;12.98;;;10.15;;
47772;SDS011;33534;51.028;13.716;2023-05-14T01:50:04;13.35;;;9.95;;
47772;SDS011;33534;51.028;13.716;2023-05-14T01:52:30;14.40;;;11.25;;
47772;SDS011;33534;51.028;13.716;2023-05-14T01:54:56;11.65;;;9.93;;
47772;SDS011;33534;51.028;13.716;2023-05-14T01:57:23;11.07;;;9.77;;
47772;SDS011;33534;51.028;13.716;2023-05-14T01:59:49;13.98;;;10.23;;
47772;SDS011;33534;51.028;13.716;2023-05-14T02:02:15;11.82;;;10.55;;
47772;SDS011;33534;51.028;13.716;2023-05-14T02:04:42;13.65;;;11.45;;
47772;SDS011;33534;51.028;13.716;2023-05-14T02:07:08;14.23;;;10.93;;
47772;SDS011;33534;51.028;13.716;2023-05-14T02:09:34;11.80;;;9.82;;
47772;SDS011;33534;51.028;13.716;2023-05-14T02:12:00;11.70;;;10.38;;
47772;SDS011;33534;51.028;13.716;2023-05-14T02:14:26;13.10;;;10.80;;
47772;SDS011;33534;51.028;13.716;2023-05-14T02:16:52;11.48;;;9.90;;
47772;SDS011;33534;51.028;13.716;2023-05-14T02:19:18;14.10;;;10.77;;
47772;SDS011;33534;51.028;13.716;2023-05-14T02:21:44;12.57;;;11.20;;
47772;SDS011;33534;51.028;13.716;2023-05-14T02:24:10;12.30;;;11.00;;
47772;SDS011;33534;51.028;13.716;2023-05-14T02:26:36;12.52;;;10.80;;
47772;SDS011;33534;51.028;13.716;2023-05-14T02:29:02;13.52;;;10.90;;
47772;SDS011;33534;51.028;13.716;2023-05-14T02:31:28;12.38;;;10.95;;
47772;SDS011;33534;51.028;13.716;2023-05-14T02:33:54;13.90;;;11.55;;
47772;SDS011;33534;51.028;13.716;2023-05-14T02:36:20;13.82;;;11.00;;
47772;SDS011;33534;51.028;13.716;2023-05-14T02:38:46;14.70;;;11.65;;
47772;SDS011;33534;51.028;13.716;2023-05-14T02:41:12;14.07;;;11.60;;
47772;SDS011;33534;51.028;13.716;2023-05-14T02:43:38;13.02;;;11.48;;
47772;SDS011;33534;51.028;13.716;2023-05-14T02:46:05;14.90;;;12.00;;
47772;SDS011;33534;51.028;13.716;2023-05-14T02:48:31;14.25;;;12.50;;
47772;SDS011;33534;51.028;13.716;2023-05-14T02:50:57;15.05;;;12.65;;
47772;SDS011;33534;51.028;13.716;2023-05-14T02:53:23;14.35;;;12.68;;
47772;SDS011;33534;51.028;13.716;2023-05-14T02:55:49;14.20;;;11.98;;
47772;SDS011;33534;51.028;13.716;2023-05-14T02:58:15;14.55;;;13.05;;
47772;SDS011;33534;51.028;13.716;2023-05-14T03:00:41;16.20;;;12.98;;
47772;SDS011;33534;51.028;13.716;2023-05-14T03:03:07;14.73;;;12.98;;
47772;SDS011;33534;51.028;13.716;2023-05-14T03:05:33;14.77;;;12.68;;
47772;SDS011;33534;51.028;13.716;2023-05-14T03:07:59;16.65;;;12.55;;
47772;SDS011;33534;51.028;13.716;2023-05-14T03:10:25;15.73;;;13.90;;
47772;SDS011;33534;51.028;13.716;2023-05-14T03:12:51;17.23;;;14.68;;
47772;SDS011;33534;51.028;13.716;2023-05-14T03:15:17;21.75;;;18.60;;
47772;SDS011;33534;51.028;13.716;2023-05-14T03:17:43;35.42;;;27.52;;
47772;SDS011;33534;51.028;13.716;2023-05-14T03:20:09;16.73;;;14.43;;
47772;SDS011;33534;51.028;13.716;2023-05-14T03:22:35;24.60;;;17.30;;
47772;SDS011;33534;51.028;13.716;2023-05-14T03:25:01;19.52;;;14.90;;
47772;SDS011;33534;51.028;13.716;2023-05-14T03:27:28;14.50;;;12.45;;
47772;SDS011;33534;51.028;13.716;2023-05-14T03:29:54;15.10;;;12.02;;
47772;SDS011;33534;51.028;13.716;2023-05-14T03:32:20;35.90;;;29.70;;
47772;SDS011;33534;51.028;13.716;2023-05-14T03:34:46;20.00;;;15.82;;
47772;SDS011;33534;51.028;13.716;2023-05-14T03:37:12;18.15;;;13.88;;
47772;SDS011;33534;51.028;13.716;2023-05-14T03:39:38;25.95;;;19.55;;
47772;SDS011;33534;51.028;13.716;2023-05-14T03:42:04;35.78;;;27.63;;
47772;SDS011;33534;51.028;13.716;2023-05-14T03:44:30;20.48;;;16.55;;
47772;SDS011;33534;51.028;13.716;2023-05-14T03:46:56;25.13;;;17.98;;
47772;SDS011;33534;51.028;13.716;2023-05-14T03:49:22;20.08;;;13.77;;
47772;SDS011;33534;51.028;13.716;2023-05-14T03:51:48;16.45;;;13.43;;
47772;SDS011;33534;51.028;13.716;2023-05-14T03:54:14;16.27;;;12.50;;
47772;SDS011;33534;51.028;13.716;2023-05-14T03:56:40;15.23;;;12.88;;
47772;SDS011;33534;51.028;13.716;2023-05-14T03:59:06;12.93;;;11.30;;
47772;SDS011;33534;51.028;13.716;2023-05-14T04:01:32;11.68;;;10.32;;
47772;SDS011;33534;51.028;13.716;2023-05-14T04:03:58;15.32;;;10.57;;
47772;SDS011;33534;51.028;13.716;2023-05-14T04:06:24;13.90;;;9.23;;
47772;SDS011;33534;51.028;13.716;2023-05-14T04:08:50;12.52;;;8.73;;
47772;SDS011;33534;51.028;13.716;2023-05-14T04:11:16;9.13;;;7.30;;
47772;SDS011;33534;51.028;13.716;2023-05-14T04:13:42;9.27;;;7.75;;
47772;SDS011;33534;51.028;13.716;2023-05-14T04:16:08;9.80;;;7.93;;
47772;SDS011;33534;51.028;13.716;2023-05-14T04:18:34;12.00;;;10.02;;
47772;SDS011;33534;51.028;13.716;2023-05-14T04:21:00;10.35;;;8.55;;
47772;SDS011;33534;51.028;13.716;2023-05-14T04:23:27;8.32;;;7.15;;
47772;SDS011;33534;51.028;13.716;2023-05-14T04:25:53;8.25;;;7.45;;
47772;SDS011;33534;51.028;13.716;2023-05-14T04:28:19;8.32;;;6.60;;
47772;SDS011;33534;51.028;13.716;2023-05-14T04:30:45;10.80;;;7.25;;
47772;SDS011;33534;51.028;13.716;2023-05-14T04:33:11;8.48;;;6.93;;
47772;SDS011;33534;51.028;13.716;2023-05-14T04:35:37;13.75;;;7.55;;
47772;SDS011;33534;51.028;13.716;2023-05-14T04:38:03;8.18;;;6.95;;
47772;SDS011;33534;51.028;13.716;2023-05-14T04:40:30;12.55;;;6.70;;
47772;SDS011;33534;51.028;13.716;2023-05-14T04:42:56;7.97;;;7.03;;
47772;SDS011;33534;51.028;13.716;2023-05-14T04:45:22;9.18;;;7.25;;
47772;SDS011;33534;51.028;13.716;2023-05-14T04:47:48;7.88;;;6.68;;
47772;SDS011;33534;51.028;13.716;2023-05-14T04:50:15;8.73;;;7.53;;
47772;SDS011;33534;51.028;13.716;2023-05-14T04:52:41;8.20;;;6.78;;
47772;SDS011;33534;51.028;13.716;2023-05-14T04:55:07;11.20;;;7.18;;
47772;SDS011;33534;51.028;13.716;2023-05-14T04:57:33;6.90;;;6.13;;
47772;SDS011;33534;51.028;13.716;2023-05-14T04:59:59;7.25;;;6.05;;
47772;SDS011;33534;51.028;13.716;2023-05-14T05:02:25;7.35;;;5.60;;
47772;SDS011;33534;51.028;13.716;2023-05-14T05:04:51;7.90;;;5.95;;
47772;SDS011;33534;51.028;13.716;2023-05-14T05:07:17;6.82;;;5.25;;
47772;SDS011;33534;51.028;13.716;2023-05-14T05:09:43;5.80;;;5.28;;
47772;SDS011;33534;51.028;13.716;2023-05-14T05:12:09;6.88;;;5.00;;
47772;SDS011;33534;51.028;13.716;2023-05-14T05:14:35;7.95;;;6.68;;
47772;SDS011;33534;51.028;13.716;2023-05-14T05:17:01;8.15;;;6.57;;
47772;SDS011;33534;51.028;13.716;2023-05-14T05:19:27;10.02;;;6.18;;
47772;SDS011;33534;51.028;13.716;2023-05-14T05:21:53;7.18;;;5.85;;
47772;SDS011;33534;51.028;13.716;2023-05-14T05:24:19;8.10;;;5.85;;
47772;SDS011;33534;51.028;13.716;2023-05-14T05:26:45;7.03;;;5.50;;
47772;SDS011;33534;51.028;13.716;2023-05-14T05:29:11;6.25;;;5.65;;
47772;SDS011;33534;51.028;13.716;2023-05-14T05:31:37;6.63;;;5.80;;
47772;SDS011;33534;51.028;13.716;2023-05-14T05:34:03;7.05;;;5.68;;
47772;SDS011;33534;51.028;13.716;2023-05-14T05:36:29;5.75;;;5.25;;
47772;SDS011;33534;51.028;13.716;2023-05-14T05:38:55;5.80;;;5.20;;
47772;SDS011;33534;51.028;13.716;2023-05-14T05:41:21;11.90;;;5.68;;
47772;SDS011;33534;51.028;13.716;2023-05-14T05:43:47;6.47;;;5.18;;
47772;SDS011;33534;51.028;13.716;2023-05-14T05:46:13;8.68;;;5.80;;
47772;SDS011;33534;51.028;13.716;2023-05-14T05:48:39;7.60;;;5.60;;
47772;SDS011;33534;51.028;13.716;2023-05-14T05:51:05;8.18;;;5.63;;
47772;SDS011;33534;51.028;13.716;2023-05-14T05:53:31;9.02;;;6.28;;
47772;SDS011;33534;51.028;13.716;2023-05-14T05:55:57;5.88;;;5.28;;
47772;SDS011;33534;51.028;13.716;2023-05-14T05:58:23;9.75;;;5.80;;
47772;SDS011;33534;51.028;13.716;2023-05-14T06:00:49;9.07;;;5.55;;
47772;SDS011;33534;51.028;13.716;2023-05-14T06:03:15;6.57;;;5.47;;
47772;SDS011;33534;51.028;13.716;2023-05-14T06:05:41;11.27;;;5.40;;
47772;SDS011;33534;51.028;13.716;2023-05-14T06:08:07;7.80;;;5.43;;
47772;SDS011;33534;51.028;13.716;2023-05-14T06:10:33;9.07;;;5.50;;
47772;SDS011;33534;51.028;13.716;2023-05-14T06:13:01;7.18;;;5.43;;
47772;SDS011;33534;51.028;13.716;2023-05-14T06:15:27;6.38;;;5.32;;
47772;SDS011;33534;51.028;13.716;2023-05-14T06:17:52;7.32;;;4.65;;
47772;SDS011;33534;51.028;13.716;2023-05-14T06:20:18;7.63;;;5.18;;
47772;SDS011;33534;51.028;13.716;2023-05-14T06:22:44;7.25;;;5.55;;
47772;SDS011;33534;51.028;13.716;2023-05-14T06:25:09;5.63;;;4.75;;
47772;SDS011;33534;51.028;13.716;2023-05-14T06:27:35;9.10;;;5.25;;
47772;SDS011;33534;51.028;13.716;2023-05-14T06:30:01;5.25;;;4.30;;
47772;SDS011;33534;51.028;13.716;2023-05-14T06:32:26;4.45;;;4.05;;
47772;SDS011;33534;51.028;13.716;2023-05-14T06:34:52;8.25;;;5.18;;
47772;SDS011;33534;51.028;13.716;2023-05-14T06:37:18;5.35;;;4.78;;
47772;SDS011;33534;51.028;13.716;2023-05-14T06:39:44;5.85;;;4.80;;
47772;SDS011;33534;51.028;13.716;2023-05-14T06:42:14;6.03;;;4.80;;
47772;SDS011;33534;51.028;13.716;2023-05-14T06:44:40;5.80;;;5.00;;
47772;SDS011;33534;51.028;13.716;2023-05-14T06:47:06;7.30;;;5.10;;
47772;SDS011;33534;51.028;13.716;2023-05-14T06:49:33;6.90;;;4.45;;
47772;SDS011;33534;51.028;13.716;2023-05-14T06:51:59;6.30;;;4.78;;
47772;SDS011;33534;51.028;13.716;2023-05-14T06:54:24;6.88;;;4.65;;
47772;SDS011;33534;51.028;13.716;2023-05-14T06:56:50;4.85;;;4.38;;
47772;SDS011;33534;51.028;13.716;2023-05-14T06:59:16;7.60;;;4.63;;
47772;SDS011;33534;51.028;13.716;2023-05-14T07:01:41;7.15;;;4.63;;
47772;SDS011;33534;51.028;13.716;2023-05-14T07:04:07;6.85;;;4.72;;
47772;SDS011;33534;51.028;13.716;2023-05-14T07:06:33;5.25;;;4.72;;
47772;SDS011;33534;51.028;13.716;2023-05-14T07:08:59;6.22;;;4.97;;
47772;SDS011;33534;51.028;13.716;2023-05-14T07:11:25;5.10;;;4.60;;
47772;SDS011;33534;51.028;13.716;2023-05-14T07:13:51;5.53;;;4.70;;
47772;SDS011;33534;51.028;13.716;2023-05-14T07:16:17;7.95;;;4.70;;
47772;SDS011;33534;51.028;13.716;2023-05-14T07:18:43;6.53;;;4.43;;
47772;SDS011;33534;51.028;13.716;2023-05-14T07:21:09;6.88;;;4.47;;
47772;SDS011;33534;51.028;13.716;2023-05-14T07:23:35;4.22;;;3.83;;
47772;SDS011;33534;51.028;13.716;2023-05-14T07:26:04;6.25;;;4.07;;
47772;SDS011;33534;51.028;13.716;2023-05-14T07:28:30;5.85;;;4.72;;
47772;SDS011;33534;51.028;13.716;2023-05-14T07:30:56;9.00;;;4.45;;
47772;SDS011;33534;51.028;13.716;2023-05-14T07:33:25;6.45;;;4.43;;
47772;SDS011;33534;51.028;13.716;2023-05-14T07:35:51;5.13;;;3.97;;
47772;SDS011;33534;51.028;13.716;2023-05-14T07:38:18;4.30;;;3.90;;
47772;SDS011;33534;51.028;13.716;2023-05-14T07:40:44;4.65;;;3.75;;
47772;SDS011;33534;51.028;13.716;2023-05-14T07:43:10;5.18;;;3.70;;
47772;SDS011;33534;51.028;13.716;2023-05-14T07:45:37;6.50;;;4.05;;
47772;SDS011;33534;51.028;13.716;2023-05-14T07:48:03;4.38;;;3.35;;
47772;SDS011;33534;51.028;13.716;2023-05-14T07:50:29;5.40;;;4.75;;
47772;SDS011;33534;51.028;13.716;2023-05-14T07:52:55;6.70;;;3.90;;
47772;SDS011;33534;51.028;13.716;2023-05-14T07:55:21;4.72;;;4.03;;
47772;SDS011;33534;51.028;13.716;2023-05-14T07:57:47;5.07;;;4.03;;
47772;SDS011;33534;51.028;13.716;2023-05-14T08:00:13;8.48;;;4.47;;
47772;SDS011;33534;51.028;13.716;2023-05-14T08:02:39;4.80;;;4.13;;
47772;SDS011;33534;51.028;13.716;2023-05-14T08:05:06;7.90;;;4.80;;
47772;SDS011;33534;51.028;13.716;2023-05-14T08:07:33;5.75;;;3.90;;
47772;SDS011;33534;51.028;13.716;2023-05-14T08:09:59;7.00;;;3.60;;
47772;SDS011;33534;51.028;13.716;2023-05-14T08:12:25;5.72;;;4.25;;
47772;SDS011;33534;51.028;13.716;2023-05-14T08:14:51;7.55;;;4.07;;
47772;SDS011;33534;51.028;13.716;2023-05-14T08:17:16;6.10;;;4.90;;
47772;SDS011;33534;51.028;13.716;2023-05-14T08:19:43;5.50;;;4.18;;
47772;SDS011;33534;51.028;13.716;2023-05-14T08:22:09;5.88;;;3.85;;
47772;SDS011;33534;51.028;13.716;2023-05-14T08:24:35;5.38;;;4.18;;
47772;SDS011;33534;51.028;13.716;2023-05-14T08:27:01;4.70;;;4.20;;
47772;SDS011;33534;51.028;13.716;2023-05-14T08:29:27;4.60;;;4.20;;
47772;SDS011;33534;51.028;13.716;2023-05-14T08:31:53;5.13;;;4.20;;
47772;SDS011;33534;51.028;13.716;2023-05-14T08:34:19;5.30;;;4.78;;
47772;SDS011;33534;51.028;13.716;2023-05-14T08:36:45;4.60;;;3.90;;
47772;SDS011;33534;51.028;13.716;2023-05-14T08:39:11;5.00;;;4.50;;
47772;SDS011;33534;51.028;13.716;2023-05-14T08:41:37;5.88;;;4.25;;
47772;SDS011;33534;51.028;13.716;2023-05-14T08:44:10;5.32;;;4.25;;
47772;SDS011;33534;51.028;13.716;2023-05-14T08:46:37;4.78;;;4.38;;
47772;SDS011;33534;51.028;13.716;2023-05-14T08:51:39;4.35;;;3.95;;
47772;SDS011;33534;51.028;13.716;2023-05-14T08:54:06;6.85;;;4.78;;
47772;SDS011;33534;51.028;13.716;2023-05-14T08:56:32;9.85;;;5.03;;
47772;SDS011;33534;51.028;13.716;2023-05-14T08:58:58;7.30;;;5.38;;
47772;SDS011;33534;51.028;13.716;2023-05-14T09:01:24;5.57;;;4.57;;
47772;SDS011;33534;51.028;13.716;2023-05-14T09:03:50;5.68;;;4.00;;
47772;SDS011;33534;51.028;13.716;2023-05-14T09:06:17;9.65;;;4.68;;
47772;SDS011;33534;51.028;13.716;2023-05-14T09:08:43;4.95;;;4.13;;
47772;SDS011;33534;51.028;13.716;2023-05-14T09:11:10;5.57;;;3.72;;
47772;SDS011;33534;51.028;13.716;2023-05-14T09:13:37;6.13;;;3.55;;
47772;SDS011;33534;51.028;13.716;2023-05-14T09:16:03;3.83;;;3.45;;
47772;SDS011;33534;51.028;13.716;2023-05-14T09:18:29;6.65;;;4.80;;
47772;SDS011;33534;51.028;13.716;2023-05-14T09:20:56;4.65;;;3.95;;
47772;SDS011;33534;51.028;13.716;2023-05-14T09:23:24;4.10;;;3.67;;
47772;SDS011;33534;51.028;13.716;2023-05-14T09:25:50;5.40;;;3.47;;
47772;SDS011;33534;51.028;13.716;2023-05-14T09:28:17;6.50;;;3.60;;
47772;SDS011;33534;51.028;13.716;2023-05-14T09:30:51;3.80;;;3.20;;
47772;SDS011;33534;51.028;13.716;2023-05-14T09:33:26;3.67;;;3.00;;
47772;SDS011;33534;51.028;13.716;2023-05-14T09:35:59;5.20;;;3.85;;
47772;SDS011;33534;51.028;13.716;2023-05-14T09:38:32;3.70;;;3.40;;
47772;SDS011;33534;51.028;13.716;2023-05-14T09:40:58;3.72;;;3.38;;
47772;SDS011;33534;51.028;13.716;2023-05-14T09:43:24;4.82;;;3.90;;
47772;SDS011;33534;51.028;13.716;2023-05-14T09:45:51;3.67;;;3.38;;
47772;SDS011;33534;51.028;13.716;2023-05-14T09:48:17;4.78;;;3.30;;
47772;SDS011;33534;51.028;13.716;2023-05-14T09:50:44;3.25;;;2.95;;
47772;SDS011;33534;51.028;13.716;2023-05-14T09:53:10;5.47;;;3.03;;
47772;SDS011;33534;51.028;13.716;2023-05-14T09:55:37;6.32;;;4.32;;
47772;SDS011;33534;51.028;13.716;2023-05-14T09:58:03;3.60;;;3.28;;
47772;SDS011;33534;51.028;13.716;2023-05-14T10:00:33;4.60;;;3.78;;
47772;SDS011;33534;51.028;13.716;2023-05-14T10:03:02;4.43;;;3.55;;
47772;SDS011;33534;51.028;13.716;2023-05-14T10:05:29;4.80;;;4.20;;
47772;SDS011;33534;51.028;13.716;2023-05-14T10:07:56;4.88;;;3.75;;
47772;SDS011;33534;51.028;13.716;2023-05-14T10:10:25;3.70;;;3.33;;
47772;SDS011;33534;51.028;13.716;2023-05-14T10:13:01;4.90;;;3.58;;
47772;SDS011;33534;51.028;13.716;2023-05-14T10:15:38;4.78;;;3.78;;
47772;SDS011;33534;51.028;13.716;2023-05-14T10:18:08;8.23;;;3.85;;
47772;SDS011;33534;51.028;13.716;2023-05-14T10:20:35;3.88;;;3.08;;
47772;SDS011;33534;51.028;13.716;2023-05-14T10:23:05;5.80;;;3.40;;
47772;SDS011;33534;51.028;13.716;2023-05-14T10:25:37;4.78;;;3.53;;
47772;SDS011;33534;51.028;13.716;2023-05-14T10:28:04;5.03;;;3.78;;
47772;SDS011;33534;51.028;13.716;2023-05-14T10:30:30;5.22;;;3.25;;
47772;SDS011;33534;51.028;13.716;2023-05-14T10:33:06;4.35;;;3.70;;
47772;SDS011;33534;51.028;13.716;2023-05-14T10:35:49;4.55;;;3.25;;
47772;SDS011;33534;51.028;13.716;2023-05-14T10:38:15;3.83;;;3.42;;
47772;SDS011;33534;51.028;13.716;2023-05-14T10:40:42;4.88;;;3.45;;
47772;SDS011;33534;51.028;13.716;2023-05-14T10:43:08;5.07;;;3.90;;
47772;SDS011;33534;51.028;13.716;2023-05-14T10:45:35;4.63;;;4.22;;
47772;SDS011;33534;51.028;13.716;2023-05-14T10:48:01;5.45;;;4.25;;
47772;SDS011;33534;51.028;13.716;2023-05-14T10:50:28;6.75;;;4.70;;
47772;SDS011;33534;51.028;13.716;2023-05-14T10:52:54;4.65;;;4.03;;
47772;SDS011;33534;51.028;13.716;2023-05-14T10:55:21;6.53;;;4.35;;
47772;SDS011;33534;51.028;13.716;2023-05-14T10:57:47;6.25;;;4.47;;
47772;SDS011;33534;51.028;13.716;2023-05-14T11:00:13;6.13;;;4.30;;
47772;SDS011;33534;51.028;13.716;2023-05-14T11:02:40;4.20;;;3.80;;
47772;SDS011;33534;51.028;13.716;2023-05-14T11:05:08;5.50;;;3.92;;
47772;SDS011;33534;51.028;13.716;2023-05-14T11:07:45;6.18;;;4.20;;
47772;SDS011;33534;51.028;13.716;2023-05-14T11:10:13;4.80;;;4.07;;
47772;SDS011;33534;51.028;13.716;2023-05-14T11:12:41;4.72;;;4.10;;
47772;SDS011;33534;51.028;13.716;2023-05-14T11:15:08;5.55;;;4.07;;
47772;SDS011;33534;51.028;13.716;2023-05-14T11:17:35;4.38;;;3.75;;
47772;SDS011;33534;51.028;13.716;2023-05-14T11:20:01;5.03;;;4.05;;
47772;SDS011;33534;51.028;13.716;2023-05-14T11:22:29;4.72;;;3.47;;
47772;SDS011;33534;51.028;13.716;2023-05-14T11:24:55;5.25;;;4.15;;
47772;SDS011;33534;51.028;13.716;2023-05-14T11:27:21;4.00;;;3.60;;
47772;SDS011;33534;51.028;13.716;2023-05-14T11:29:48;4.40;;;3.85;;
47772;SDS011;33534;51.028;13.716;2023-05-14T11:32:14;3.50;;;3.20;;
47772;SDS011;33534;51.028;13.716;2023-05-14T11:34:41;5.88;;;4.13;;
47772;SDS011;33534;51.028;13.716;2023-05-14T11:37:08;3.70;;;3.30;;
47772;SDS011;33534;51.028;13.716;2023-05-14T11:39:36;5.82;;;4.50;;
47772;SDS011;33534;51.028;13.716;2023-05-14T11:42:09;4.57;;;3.80;;
47772;SDS011;33534;51.028;13.716;2023-05-14T11:44:40;6.78;;;4.18;;
47772;SDS011;33534;51.028;13.716;2023-05-14T11:47:08;8.07;;;3.90;;
47772;SDS011;33534;51.028;13.716;2023-05-14T11:49:35;3.78;;;3.47;;
47772;SDS011;33534;51.028;13.716;2023-05-14T11:52:02;5.25;;;4.25;;
47772;SDS011;33534;51.028;13.716;2023-05-14T11:54:29;6.00;;;3.95;;
47772;SDS011;33534;51.028;13.716;2023-05-14T11:56:55;3.97;;;3.28;;
47772;SDS011;33534;51.028;13.716;2023-05-14T11:59:29;5.88;;;3.42;;
47772;SDS011;33534;51.028;13.716;2023-05-14T12:01:55;3.58;;;3.15;;
47772;SDS011;33534;51.028;13.716;2023-05-14T12:04:22;3.92;;;3.28;;
47772;SDS011;33534;51.028;13.716;2023-05-14T12:06:48;5.63;;;3.28;;
47772;SDS011;33534;51.028;13.716;2023-05-14T12:09:15;4.47;;;3.25;;
47772;SDS011;33534;51.028;13.716;2023-05-14T12:11:42;6.35;;;5.30;;
47772;SDS011;33534;51.028;13.716;2023-05-14T12:14:13;4.22;;;3.05;;
47772;SDS011;33534;51.028;13.716;2023-05-14T12:16:39;3.65;;;2.60;;
47772;SDS011;33534;51.028;13.716;2023-05-14T12:19:07;2.53;;;2.33;;
47772;SDS011;33534;51.028;13.716;2023-05-14T12:21:34;3.63;;;2.70;;
47772;SDS011;33534;51.028;13.716;2023-05-14T12:24:00;3.58;;;2.60;;
47772;SDS011;33534;51.028;13.716;2023-05-14T12:26:26;3.20;;;2.55;;
47772;SDS011;33534;51.028;13.716;2023-05-14T12:28:56;2.60;;;2.40;;
47772;SDS011;33534;51.028;13.716;2023-05-14T12:31:34;3.35;;;3.05;;
47772;SDS011;33534;51.028;13.716;2023-05-14T12:34:01;4.68;;;2.80;;
47772;SDS011;33534;51.028;13.716;2023-05-14T12:36:27;3.55;;;3.10;;
47772;SDS011;33534;51.028;13.716;2023-05-14T12:38:58;4.47;;;3.22;;
47772;SDS011;33534;51.028;13.716;2023-05-14T12:41:30;4.95;;;2.63;;
47772;SDS011;33534;51.028;13.716;2023-05-14T12:43:57;11.63;;;3.92;;
47772;SDS011;33534;51.028;13.716;2023-05-14T12:46:24;3.78;;;2.47;;
47772;SDS011;33534;51.028;13.716;2023-05-14T12:48:50;6.53;;;2.85;;
47772;SDS011;33534;51.028;13.716;2023-05-14T12:51:16;4.75;;;2.75;;
47772;SDS011;33534;51.028;13.716;2023-05-14T12:53:42;3.13;;;2.60;;
47772;SDS011;33534;51.028;13.716;2023-05-14T12:56:09;3.20;;;2.53;;
47772;SDS011;33534;51.028;13.716;2023-05-14T12:58:35;4.07;;;2.10;;
47772;SDS011;33534;51.028;13.716;2023-05-14T13:01:01;2.83;;;2.30;;
47772;SDS011;33534;51.028;13.716;2023-05-14T13:03:27;2.55;;;2.35;;
47772;SDS011;33534;51.028;13.716;2023-05-14T13:05:53;3.95;;;2.83;;
47772;SDS011;33534;51.028;13.716;2023-05-14T13:08:22;4.75;;;2.70;;
47772;SDS011;33534;51.028;13.716;2023-05-14T13:10:52;2.25;;;2.10;;
47772;SDS011;33534;51.028;13.716;2023-05-14T13:13:18;2.33;;;2.13;;
47772;SDS011;33534;51.028;13.716;2023-05-14T13:15:44;3.08;;;2.20;;
47772;SDS011;33534;51.028;13.716;2023-05-14T13:18:11;4.25;;;2.42;;
47772;SDS011;33534;51.028;13.716;2023-05-14T13:20:37;2.50;;;2.20;;
47772;SDS011;33534;51.028;13.716;2023-05-14T13:23:03;3.20;;;2.58;;
47772;SDS011;33534;51.028;13.716;2023-05-14T13:25:29;3.03;;;2.25;;
47772;SDS011;33534;51.028;13.716;2023-05-14T13:27:55;5.03;;;2.47;;
47772;SDS011;33534;51.028;13.716;2023-05-14T13:30:21;2.33;;;2.13;;
47772;SDS011;33534;51.028;13.716;2023-05-14T13:32:47;4.53;;;2.42;;
47772;SDS011;33534;51.028;13.716;2023-05-14T13:35:13;2.45;;;2.25;;
47772;SDS011;33534;51.028;13.716;2023-05-14T13:37:42;4.88;;;2.72;;
47772;SDS011;33534;51.028;13.716;2023-05-14T13:40:08;4.63;;;2.67;;
47772;SDS011;33534;51.028;13.716;2023-05-14T13:42:34;3.13;;;2.80;;
47772;SDS011;33534;51.028;13.716;2023-05-14T13:45:00;2.92;;;2.60;;
47772;SDS011;33534;51.028;13.716;2023-05-14T13:47:27;4.32;;;2.85;;
47772;SDS011;33534;51.028;13.716;2023-05-14T13:49:53;3.85;;;2.97;;
47772;SDS011;33534;51.028;13.716;2023-05-14T13:52:20;4.18;;;2.63;;
47772;SDS011;33534;51.028;13.716;2023-05-14T13:54:46;3.35;;;2.67;;
47772;SDS011;33534;51.028;13.716;2023-05-14T13:57:12;5.68;;;3.08;;
47772;SDS011;33534;51.028;13.716;2023-05-14T13:59:39;3.22;;;2.90;;
47772;SDS011;33534;51.028;13.716;2023-05-14T14:02:05;8.00;;;3.05;;
47772;SDS011;33534;51.028;13.716;2023-05-14T14:04:32;3.28;;;2.97;;
47772;SDS011;33534;51.028;13.716;2023-05-14T14:06:58;2.95;;;2.65;;
47772;SDS011;33534;51.028;13.716;2023-05-14T14:09:24;2.45;;;2.25;;
47772;SDS011;33534;51.028;13.716;2023-05-14T14:11:50;3.28;;;2.72;;
47772;SDS011;33534;51.028;13.716;2023-05-14T14:14:16;4.00;;;2.70;;
47772;SDS011;33534;51.028;13.716;2023-05-14T14:16:42;4.25;;;2.72;;
47772;SDS011;33534;51.028;13.716;2023-05-14T14:19:09;3.35;;;2.80;;
47772;SDS011;33534;51.028;13.716;2023-05-14T14:21:35;3.53;;;3.10;;
47772;SDS011;33534;51.028;13.716;2023-05-14T14:24:03;3.17;;;2.88;;
47772;SDS011;33534;51.028;13.716;2023-05-14T14:26:30;3.05;;;2.35;;
47772;SDS011;33534;51.028;13.716;2023-05-14T14:28:56;4.82;;;2.72;;
47772;SDS011;33534;51.028;13.716;2023-05-14T14:31:22;4.15;;;2.65;;
47772;SDS011;33534;51.028;13.716;2023-05-14T14:33:48;9.43;;;3.50;;
47772;SDS011;33534;51.028;13.716;2023-05-14T14:36:14;6.80;;;3.05;;